createdAt,value
2022-11-16T00:00:31.066Z,99527.66
2022-11-16T00:01:33.557Z,99527.66
2022-11-16T00:02:36.574Z,99527.50
2022-11-16T00:03:38.395Z,99525.84
2022-11-16T00:04:41.220Z,99524.00
2022-11-16T00:05:42.790Z,99525.69
2022-11-16T00:06:45.720Z,99529.19
2022-11-16T00:07:47.266Z,99524.00
2022-11-16T00:09:15.070Z,99524.00
2022-11-16T00:10:16.911Z,99525.00
2022-11-16T00:11:23.902Z,99518.69
2022-11-16T00:12:26.760Z,99520.69
2022-11-16T00:13:29.232Z,99519.69
2022-11-16T00:14:33.534Z,99522.19
2022-11-16T00:15:36.015Z,99524.84
2022-11-16T00:16:37.710Z,99514.22
2022-11-16T00:17:40.212Z,99514.22
2022-11-16T00:18:41.899Z,99512.38
2022-11-16T00:19:44.460Z,99513.38
2022-11-16T00:20:46.148Z,99509.72
2022-11-16T00:21:48.740Z,99509.72
2022-11-16T00:22:50.256Z,99512.38
2022-11-16T00:23:52.896Z,99509.72
2022-11-16T00:24:55.374Z,99509.72
2022-11-16T00:26:02.534Z,99511.38
2022-11-16T00:27:05.047Z,99506.03
2022-11-16T00:28:07.972Z,99505.06
2022-11-16T00:29:15.838Z,99506.03
2022-11-16T00:30:17.337Z,99500.72
2022-11-16T00:31:20.360Z,99498.06
2022-11-16T00:32:21.855Z,99500.72
2022-11-16T00:33:24.322Z,99499.09
2022-11-16T00:34:25.869Z,99499.09
2022-11-16T00:35:30.173Z,99497.41
2022-11-16T00:36:32.263Z,99492.94
2022-11-16T00:37:34.756Z,99494.75
2022-11-16T00:38:36.754Z,99500.72
2022-11-16T00:39:39.365Z,99493.75
2022-11-16T00:40:40.893Z,99499.09
2022-11-16T00:41:44.711Z,99492.94
2022-11-16T00:42:46.264Z,99492.09
2022-11-16T00:43:50.082Z,99498.41
2022-11-16T00:44:51.594Z,99495.72
2022-11-16T00:45:54.588Z,99494.94
2022-11-16T00:46:56.075Z,99501.06
2022-11-16T00:48:00.587Z,99501.06
2022-11-16T00:49:02.879Z,99495.72
2022-11-16T00:50:06.845Z,99501.91
2022-11-16T00:51:08.334Z,99491.09
2022-11-16T00:52:10.868Z,99492.09
2022-11-16T00:53:13.830Z,99494.75
2022-11-16T00:54:16.310Z,99497.41
2022-11-16T00:55:17.836Z,99495.72
2022-11-16T00:56:20.440Z,99493.91
2022-11-16T00:57:21.949Z,99500.06
2022-11-16T00:58:24.864Z,99493.91
2022-11-16T00:59:27.780Z,99493.91
2022-11-16T01:00:30.350Z,99490.41
2022-11-16T01:01:31.928Z,99495.72
2022-11-16T01:02:34.444Z,99493.06
2022-11-16T01:03:36.383Z,99488.78
2022-11-16T01:04:38.873Z,99494.75
2022-11-16T01:05:40.452Z,99486.13
2022-11-16T01:06:42.912Z,99487.09
2022-11-16T01:07:44.602Z,99491.44
2022-11-16T01:08:47.464Z,99489.63
2022-11-16T01:09:48.994Z,99494.09
2022-11-16T01:10:51.471Z,99488.78
2022-11-16T01:12:12.633Z,99494.09
2022-11-16T01:13:14.152Z,99489.91
2022-11-16T01:14:17.308Z,99492.44
2022-11-16T01:15:22.450Z,99483.59
2022-11-16T01:16:25.514Z,99481.13
2022-11-16T01:17:27.239Z,99482.13
2022-11-16T01:18:29.829Z,99482.13
2022-11-16T01:19:31.477Z,99479.47
2022-11-16T01:20:34.072Z,99485.63
2022-11-16T01:21:35.634Z,99492.75
2022-11-16T01:22:39.481Z,99483.09
2022-11-16T01:23:41.340Z,99482.13
2022-11-16T01:24:43.912Z,99490.94
2022-11-16T01:25:45.517Z,99482.13
2022-11-16T01:26:48.072Z,99487.44
2022-11-16T01:27:49.780Z,99482.13
2022-11-16T01:28:52.288Z,99484.78
2022-11-16T01:29:53.805Z,99493.59
2022-11-16T01:30:57.853Z,99484.59
2022-11-16T01:31:59.475Z,99485.75
2022-11-16T01:33:02.018Z,99486.59
2022-11-16T01:34:03.526Z,99490.25
2022-11-16T01:35:07.382Z,99493.75
2022-11-16T01:36:14.570Z,99491.09
2022-11-16T01:37:17.765Z,99494.78
2022-11-16T01:38:19.394Z,99492.25
2022-11-16T01:39:22.305Z,99494.09
2022-11-16T01:40:23.814Z,99496.75
2022-11-16T01:41:27.385Z,99485.25
2022-11-16T01:42:31.375Z,99489.75
2022-11-16T01:43:51.419Z,99487.09
2022-11-16T01:45:00.723Z,99488.75
2022-11-16T01:46:04.554Z,99489.75
2022-11-16T01:47:09.968Z,99490.78
2022-11-16T01:48:20.780Z,99495.06
2022-11-16T01:49:25.404Z,99488.13
2022-11-16T01:50:27.980Z,99489.75
2022-11-16T01:51:30.229Z,99485.44
2022-11-16T01:52:36.284Z,99487.94
2022-11-16T01:53:41.015Z,99495.06
2022-11-16T01:54:46.611Z,99485.44
2022-11-16T01:55:49.452Z,99487.28
2022-11-16T01:56:54.432Z,99486.44
2022-11-16T01:57:56.868Z,99481.97
2022-11-16T01:58:59.814Z,99481.97
2022-11-16T02:00:02.907Z,99474.97
2022-11-16T02:01:08.933Z,99475.78
2022-11-16T02:02:10.510Z,99468.81
2022-11-16T02:03:13.052Z,99468.81
2022-11-16T02:04:14.741Z,99469.81
2022-11-16T02:05:21.047Z,99466.16
2022-11-16T02:06:33.787Z,99470.66
2022-11-16T02:08:14.254Z,99463.47
2022-11-16T02:09:52.864Z,99458.16
2022-11-16T02:11:11.054Z,99460.03
2022-11-16T02:12:26.884Z,99460.16
2022-11-16T02:13:40.612Z,99458.50
2022-11-16T02:15:03.569Z,99450.53
2022-11-16T02:16:20.811Z,99453.19
2022-11-16T02:17:32.059Z,99464.66
2022-11-16T02:18:42.869Z,99458.50
2022-11-16T02:20:09.550Z,99472.81
2022-11-16T02:21:27.640Z,99470.16
2022-11-16T02:22:43.694Z,99455.19
2022-11-16T02:24:08.216Z,99467.50
2022-11-16T02:25:13.738Z,99462.19
2022-11-16T02:26:37.358Z,99467.31
2022-11-16T02:28:00.314Z,99465.50
2022-11-16T02:29:20.611Z,99462.19
2022-11-16T02:30:23.212Z,99464.84
2022-11-16T02:31:29.119Z,99464.00
2022-11-16T02:32:35.793Z,99461.16
2022-11-16T02:33:41.912Z,99459.53
2022-11-16T02:34:48.502Z,99456.03
2022-11-16T02:35:54.355Z,99456.84
2022-11-16T02:36:58.126Z,99456.84
2022-11-16T02:38:03.581Z,99454.19
2022-11-16T02:39:10.481Z,99448.69
2022-11-16T02:40:16.604Z,99443.38
2022-11-16T02:41:22.224Z,99444.22
2022-11-16T02:42:30.157Z,99442.53
2022-11-16T02:43:36.120Z,99438.88
2022-11-16T02:44:44.783Z,99437.22
2022-11-16T02:45:50.823Z,99435.59
2022-11-16T02:46:58.822Z,99436.38
2022-11-16T02:48:06.232Z,99439.88
2022-11-16T02:49:15.088Z,99437.22
2022-11-16T02:50:19.522Z,99440.91
2022-11-16T02:51:23.702Z,99440.06
2022-11-16T02:52:28.494Z,99435.59
2022-11-16T02:53:34.783Z,99439.03
2022-11-16T02:54:36.304Z,99438.25
2022-11-16T02:55:39.158Z,99437.22
2022-11-16T02:56:43.830Z,99426.56
2022-11-16T02:57:52.603Z,99425.75
2022-11-16T02:58:54.623Z,99428.41
2022-11-16T02:59:59.811Z,99428.41
2022-11-16T03:01:05.986Z,99430.06
2022-11-16T03:02:18.873Z,99433.56
2022-11-16T03:03:29.422Z,99430.91
2022-11-16T03:04:34.905Z,99426.56
2022-11-16T03:05:42.138Z,99431.06
2022-11-16T03:06:49.517Z,99423.09
2022-11-16T03:07:57.692Z,99423.91
2022-11-16T03:09:03.160Z,99421.25
2022-11-16T03:10:05.455Z,99419.44
2022-11-16T03:11:28.765Z,99422.94
2022-11-16T03:12:32.416Z,99415.94
2022-11-16T03:13:38.138Z,99415.94
2022-11-16T03:14:43.492Z,99422.09
2022-11-16T03:15:48.811Z,99414.13
2022-11-16T03:16:55.954Z,99412.28
2022-11-16T03:18:01.203Z,99415.94
2022-11-16T03:19:06.450Z,99412.28
2022-11-16T03:20:13.570Z,99419.28
2022-11-16T03:21:24.641Z,99427.25
2022-11-16T03:22:32.218Z,99425.44
2022-11-16T03:23:33.959Z,99426.25
2022-11-16T03:24:36.638Z,99429.91
2022-11-16T03:25:44.019Z,99427.25
2022-11-16T03:26:51.679Z,99427.25
2022-11-16T03:27:59.044Z,99434.22
2022-11-16T03:29:09.044Z,99432.59
2022-11-16T03:30:14.474Z,99428.25
2022-11-16T03:31:25.078Z,99439.72
2022-11-16T03:32:34.089Z,99435.25
2022-11-16T03:33:40.510Z,99436.22
2022-11-16T03:34:50.588Z,99438.06
2022-11-16T03:35:58.192Z,99445.88
2022-11-16T03:37:02.162Z,99441.41
2022-11-16T03:38:06.102Z,99446.72
2022-11-16T03:39:13.144Z,99445.88
2022-11-16T03:40:16.850Z,99452.84
2022-11-16T03:41:23.235Z,99452.84
2022-11-16T03:42:26.930Z,99452.84
2022-11-16T03:43:31.192Z,99456.53
2022-11-16T03:44:33.963Z,99454.69
2022-11-16T03:45:37.933Z,99459.00
2022-11-16T03:46:42.236Z,99457.19
2022-11-16T03:47:45.680Z,99452.69
2022-11-16T03:48:47.363Z,99466.81
2022-11-16T03:49:49.840Z,99458.00
2022-11-16T03:50:52.345Z,99460.50
2022-11-16T03:51:55.183Z,99464.16
2022-11-16T03:52:56.726Z,99460.66
2022-11-16T03:53:59.209Z,99463.34
2022-11-16T03:55:00.772Z,99465.81
2022-11-16T03:56:04.122Z,99462.34
2022-11-16T03:57:05.786Z,99472.97
2022-11-16T03:58:08.583Z,99476.44
2022-11-16T03:59:10.245Z,99464.16
2022-11-16T04:00:13.702Z,99467.66
2022-11-16T04:01:17.067Z,99464.16
2022-11-16T04:02:20.956Z,99464.16
2022-11-16T04:03:22.692Z,99466.00
2022-11-16T04:04:43.101Z,99465.16
2022-11-16T04:06:03.441Z,99469.63
2022-11-16T04:07:23.796Z,99471.47
2022-11-16T04:08:44.085Z,99471.47
2022-11-16T04:10:06.283Z,99465.50
2022-11-16T04:11:30.326Z,99469.81
2022-11-16T04:12:50.848Z,99464.66
2022-11-16T04:14:11.092Z,99472.63
2022-11-16T04:15:31.407Z,99469.97
2022-11-16T04:16:51.709Z,99469.13
2022-11-16T04:18:13.368Z,99471.81
2022-11-16T04:19:33.717Z,99476.13
2022-11-16T04:21:08.276Z,99473.47
2022-11-16T04:22:35.585Z,99479.78
2022-11-16T04:23:55.895Z,99486.78
2022-11-16T04:25:04.423Z,99485.94
2022-11-16T04:26:08.216Z,99492.09
2022-11-16T04:27:32.495Z,99490.41
2022-11-16T04:28:35.705Z,99492.25
2022-11-16T04:29:39.153Z,99494.75
2022-11-16T04:31:01.398Z,99498.25
2022-11-16T04:32:21.666Z,99499.09
2022-11-16T04:33:43.488Z,99494.75
2022-11-16T04:35:03.718Z,99502.72
2022-11-16T04:36:24.541Z,99491.25
2022-11-16T04:37:44.883Z,99488.78
2022-11-16T04:38:47.352Z,99488.78
2022-11-16T04:39:48.846Z,99492.25
2022-11-16T04:40:51.459Z,99488.78
2022-11-16T04:42:11.577Z,99501.06
2022-11-16T04:43:13.067Z,99490.41
2022-11-16T04:44:15.715Z,99485.09
2022-11-16T04:45:36.118Z,99480.63
2022-11-16T04:46:56.583Z,99482.44
2022-11-16T04:47:58.343Z,99478.13
2022-11-16T04:49:02.471Z,99477.31
2022-11-16T04:50:04.820Z,99477.31
2022-11-16T04:51:07.492Z,99486.13
2022-11-16T04:52:09.025Z,99486.78
2022-11-16T04:53:12.045Z,99487.59
2022-11-16T04:54:13.819Z,99485.78
2022-11-16T04:55:16.417Z,99490.91
2022-11-16T04:56:17.972Z,99494.41
2022-11-16T04:57:20.535Z,99491.75
2022-11-16T04:58:22.072Z,99501.56
2022-11-16T04:59:24.539Z,99495.25
2022-11-16T05:00:26.095Z,99504.06
2022-11-16T05:01:42.615Z,99503.06
2022-11-16T05:02:45.442Z,99500.38
2022-11-16T05:03:46.935Z,99502.91
2022-11-16T05:04:50.984Z,99502.06
2022-11-16T05:05:53.553Z,99496.75
2022-11-16T05:06:55.096Z,99507.38
2022-11-16T05:07:57.598Z,99493.09
2022-11-16T05:08:59.100Z,99501.06
2022-11-16T05:10:01.628Z,99494.78
2022-11-16T05:11:03.233Z,99494.78
2022-11-16T05:12:06.025Z,99502.75
2022-11-16T05:13:07.548Z,99506.22
2022-11-16T05:14:10.521Z,99501.06
2022-11-16T05:15:12.195Z,99496.75
2022-11-16T05:16:14.704Z,99501.06
2022-11-16T05:17:17.519Z,99502.06
2022-11-16T05:18:20.143Z,99501.22
2022-11-16T05:19:40.349Z,99507.38
2022-11-16T05:21:01.575Z,99506.56
2022-11-16T05:22:03.132Z,99510.22
2022-11-16T05:23:05.706Z,99514.72
2022-11-16T05:24:25.879Z,99520.03
2022-11-16T05:25:33.872Z,99512.19
2022-11-16T05:26:38.591Z,99512.19
2022-11-16T05:27:41.347Z,99509.72
2022-11-16T05:28:42.981Z,99515.88
2022-11-16T05:29:45.928Z,99508.88
2022-11-16T05:30:47.545Z,99508.06
2022-11-16T05:31:50.086Z,99514.22
2022-11-16T05:32:52.601Z,99519.53
2022-11-16T05:33:54.125Z,99515.88
2022-11-16T05:34:56.646Z,99522.00
2022-11-16T05:35:59.565Z,99519.34
2022-11-16T05:37:02.383Z,99511.38
2022-11-16T05:38:04.036Z,99515.88
2022-11-16T05:39:06.820Z,99515.88
2022-11-16T05:40:09.633Z,99513.38
2022-11-16T05:41:12.120Z,99524.00
2022-11-16T05:42:13.933Z,99522.34
2022-11-16T05:43:16.508Z,99521.69
2022-11-16T05:44:18.296Z,99517.34
2022-11-16T05:45:21.317Z,99515.72
2022-11-16T05:46:24.067Z,99522.00
2022-11-16T05:47:26.538Z,99516.81
2022-11-16T05:48:28.098Z,99522.47
2022-11-16T05:49:30.764Z,99518.31
2022-11-16T05:50:32.688Z,99523.63
2022-11-16T05:51:38.445Z,99521.97
2022-11-16T05:52:39.942Z,99524.81
2022-11-16T05:53:45.311Z,99528.44
2022-11-16T05:54:47.775Z,99520.66
2022-11-16T05:55:49.341Z,99529.63
2022-11-16T05:56:52.157Z,99529.63
2022-11-16T05:57:53.742Z,99531.28
2022-11-16T05:58:56.349Z,99531.94
2022-11-16T05:59:57.859Z,99535.44
2022-11-16T06:01:00.340Z,99533.63
2022-11-16T06:02:03.836Z,99538.63
2022-11-16T06:03:05.565Z,99537.59
2022-11-16T06:04:08.319Z,99527.97
2022-11-16T06:05:09.945Z,99528.63
2022-11-16T06:06:12.509Z,99534.78
2022-11-16T06:07:15.525Z,99533.94
2022-11-16T06:08:18.138Z,99541.78
2022-11-16T06:09:20.709Z,99533.13
2022-11-16T06:10:22.350Z,99546.59
2022-11-16T06:11:25.197Z,99539.59
2022-11-16T06:12:27.665Z,99540.75
2022-11-16T06:13:29.449Z,99545.56
2022-11-16T06:14:32.089Z,99539.59
2022-11-16T06:15:37.098Z,99549.88
2022-11-16T06:16:39.759Z,99558.03
2022-11-16T06:17:41.272Z,99555.84
2022-11-16T06:18:45.368Z,99553.53
2022-11-16T06:19:46.863Z,99551.19
2022-11-16T06:20:49.834Z,99551.50
2022-11-16T06:21:52.323Z,99551.84
2022-11-16T06:22:55.283Z,99546.84
2022-11-16T06:23:57.925Z,99554.13
2022-11-16T06:24:59.554Z,99557.13
2022-11-16T06:26:02.574Z,99552.13
2022-11-16T06:27:04.288Z,99555.94
2022-11-16T06:28:08.288Z,99553.44
2022-11-16T06:29:10.148Z,99564.25
2022-11-16T06:30:12.887Z,99557.41
2022-11-16T06:31:14.538Z,99557.72
2022-11-16T06:32:17.021Z,99565.03
2022-11-16T06:33:19.492Z,99569.69
2022-11-16T06:34:22.048Z,99573.47
2022-11-16T06:35:23.634Z,99565.69
2022-11-16T06:36:26.139Z,99565.00
2022-11-16T06:37:27.818Z,99568.66
2022-11-16T06:38:32.113Z,99575.78
2022-11-16T06:39:34.451Z,99574.97
2022-11-16T06:40:38.652Z,99574.97
2022-11-16T06:41:41.810Z,99574.97
2022-11-16T06:42:45.011Z,99579.44
2022-11-16T06:43:47.552Z,99578.59
2022-11-16T06:44:49.076Z,99591.06
2022-11-16T06:45:52.996Z,99592.88
2022-11-16T06:46:54.519Z,99589.53
2022-11-16T06:47:57.090Z,99587.06
2022-11-16T06:48:59.730Z,99593.34
2022-11-16T06:50:01.423Z,99594.34
2022-11-16T06:51:04.143Z,99597.16
2022-11-16T06:52:05.754Z,99604.44
2022-11-16T06:53:08.397Z,99603.78
2022-11-16T06:54:12.345Z,99607.41
2022-11-16T06:55:14.042Z,99605.78
2022-11-16T06:56:17.257Z,99612.22
2022-11-16T06:57:18.838Z,99605.25
2022-11-16T06:58:21.363Z,99612.38
2022-11-16T06:59:22.944Z,99603.75
2022-11-16T07:00:25.549Z,99606.53
2022-11-16T07:01:28.256Z,99603.22
2022-11-16T07:02:29.901Z,99617.47
2022-11-16T07:03:32.573Z,99621.97
2022-11-16T07:04:34.242Z,99618.47
2022-11-16T07:05:40.833Z,99616.13
2022-11-16T07:06:42.454Z,99613.66
2022-11-16T07:07:44.909Z,99617.28
2022-11-16T07:08:47.546Z,99617.41
2022-11-16T07:09:50.527Z,99619.25
2022-11-16T07:10:53.029Z,99615.91
2022-11-16T07:11:54.590Z,99626.53
2022-11-16T07:12:57.213Z,99624.88
2022-11-16T07:13:59.697Z,99620.56
2022-11-16T07:15:01.242Z,99621.53
2022-11-16T07:16:04.795Z,99626.00
2022-11-16T07:17:09.664Z,99624.38
2022-11-16T07:18:12.473Z,99628.00
2022-11-16T07:19:14.162Z,99624.38
2022-11-16T07:20:18.481Z,99627.16
2022-11-16T07:21:20.038Z,99628.13
2022-11-16T07:22:22.649Z,99628.13
2022-11-16T07:23:25.228Z,99635.31
2022-11-16T07:24:27.764Z,99629.16
2022-11-16T07:25:32.116Z,99629.16
2022-11-16T07:26:35.223Z,99627.63
2022-11-16T07:27:36.887Z,99636.41
2022-11-16T07:28:43.488Z,99633.75
2022-11-16T07:29:49.415Z,99638.09
2022-11-16T07:30:51.903Z,99635.56
2022-11-16T07:31:53.456Z,99642.56
2022-11-16T07:32:59.709Z,99634.59
2022-11-16T07:34:01.362Z,99646.19
2022-11-16T07:35:04.191Z,99643.53
2022-11-16T07:36:08.447Z,99648.03
2022-11-16T07:37:11.062Z,99649.69
2022-11-16T07:38:16.842Z,99646.19
2022-11-16T07:39:21.781Z,99649.69
2022-11-16T07:40:24.284Z,99655.69
2022-11-16T07:41:27.224Z,99647.03
2022-11-16T07:42:29.686Z,99655.00
2022-11-16T07:43:32.501Z,99654.03
2022-11-16T07:44:35.076Z,99657.66
2022-11-16T07:45:37.573Z,99657.66
2022-11-16T07:46:47.898Z,99657.66
2022-11-16T07:47:53.179Z,99664.78
2022-11-16T07:48:54.923Z,99660.31
2022-11-16T07:49:57.638Z,99659.47
2022-11-16T07:51:03.387Z,99662.13
2022-11-16T07:52:06.125Z,99654.16
2022-11-16T07:53:08.582Z,99665.63
2022-11-16T07:54:11.882Z,99663.13
2022-11-16T07:55:14.607Z,99666.63
2022-11-16T07:56:16.395Z,99672.75
2022-11-16T07:57:20.323Z,99666.63
2022-11-16T07:58:22.754Z,99672.75
2022-11-16T07:59:25.687Z,99669.28
2022-11-16T08:00:27.611Z,99670.09
2022-11-16T08:01:30.333Z,99669.28
2022-11-16T08:02:32.879Z,99672.75
2022-11-16T08:03:35.770Z,99663.28
2022-11-16T08:04:39.421Z,99675.56
2022-11-16T08:05:40.940Z,99671.94
2022-11-16T08:06:43.453Z,99678.91
2022-11-16T08:07:44.977Z,99674.59
2022-11-16T08:08:47.570Z,99678.06
2022-11-16T08:09:49.900Z,99677.91
2022-11-16T08:10:52.481Z,99673.59
2022-11-16T08:11:55.011Z,99676.09
2022-11-16T08:12:59.268Z,99672.59
2022-11-16T08:14:01.883Z,99669.94
2022-11-16T08:15:04.067Z,99667.44
2022-11-16T08:16:09.450Z,99670.94
2022-11-16T08:17:11.084Z,99669.94
2022-11-16T08:18:13.614Z,99676.94
2022-11-16T08:19:16.109Z,99676.09
2022-11-16T08:20:17.970Z,99682.25
2022-11-16T08:21:20.528Z,99681.41
2022-11-16T08:22:23.023Z,99680.56
2022-11-16T08:23:24.581Z,99681.56
2022-11-16T08:24:27.460Z,99688.53
2022-11-16T08:25:29.071Z,99684.19
2022-11-16T08:26:32.703Z,99692.88
2022-11-16T08:27:35.244Z,99690.22
2022-11-16T08:28:39.976Z,99686.72
2022-11-16T08:29:42.464Z,99696.38
2022-11-16T08:30:44.960Z,99694.50
2022-11-16T08:31:49.798Z,99692.88
2022-11-16T08:32:51.382Z,99695.34
2022-11-16T08:33:53.990Z,99693.53
2022-11-16T08:34:56.619Z,99691.84
2022-11-16T08:35:59.439Z,99694.50
2022-11-16T08:37:01.910Z,99701.50
2022-11-16T08:38:03.558Z,99692.56
2022-11-16T08:39:06.159Z,99701.50
2022-11-16T08:40:09.505Z,99707.66
2022-11-16T08:41:11.140Z,99704.16
2022-11-16T08:42:13.675Z,99701.50
2022-11-16T08:43:16.702Z,99703.19
2022-11-16T08:44:20.538Z,99708.50
2022-11-16T08:45:22.137Z,99709.34
2022-11-16T08:46:24.603Z,99707.66
2022-11-16T08:47:26.214Z,99715.44
2022-11-16T08:48:28.826Z,99707.34
2022-11-16T08:49:30.395Z,99709.16
2022-11-16T08:50:44.270Z,99705.66
2022-11-16T08:51:55.905Z,99710.00
2022-11-16T08:52:57.874Z,99715.44
2022-11-16T08:54:01.531Z,99714.47
2022-11-16T08:55:03.197Z,99716.16
2022-11-16T08:56:06.152Z,99719.66
2022-11-16T08:57:08.657Z,99718.50
2022-11-16T08:58:10.982Z,99719.88
2022-11-16T08:59:13.734Z,99726.81
2022-11-16T09:00:18.145Z,99717.56
2022-11-16T09:01:22.757Z,99725.22
2022-11-16T09:02:25.829Z,99723.94
2022-11-16T09:03:27.736Z,99722.78
2022-11-16T09:04:35.680Z,99726.28
2022-11-16T09:05:38.775Z,99733.94
2022-11-16T09:06:41.345Z,99731.16
2022-11-16T09:07:44.015Z,99729.47
2022-11-16T09:08:47.469Z,99737.25
2022-11-16T09:09:50.187Z,99735.31
2022-11-16T09:10:51.748Z,99738.63
2022-11-16T09:11:55.878Z,99740.00
2022-11-16T09:12:58.127Z,99737.03
2022-11-16T09:14:00.846Z,99735.72
2022-11-16T09:15:03.094Z,99738.91
2022-11-16T09:16:07.854Z,99739.25
2022-11-16T09:17:10.622Z,99743.44
2022-11-16T09:18:12.132Z,99743.16
2022-11-16T09:19:14.696Z,99739.16
2022-11-16T09:20:16.374Z,99733.53
2022-11-16T09:21:20.382Z,99740.22
2022-11-16T09:22:21.916Z,99738.38
2022-11-16T09:23:25.723Z,99735.41
2022-11-16T09:24:28.487Z,99739.56
2022-11-16T09:25:31.023Z,99739.44
2022-11-16T09:26:32.573Z,99742.63
2022-11-16T09:27:35.047Z,99738.94
2022-11-16T09:28:36.924Z,99738.66
2022-11-16T09:29:39.709Z,99740.28
2022-11-16T09:30:41.577Z,99739.97
2022-11-16T09:31:45.618Z,99738.69
2022-11-16T09:32:47.221Z,99738.34
2022-11-16T09:33:49.735Z,99738.22
2022-11-16T09:34:52.259Z,99736.56
2022-11-16T09:35:53.800Z,99745.75
2022-11-16T09:36:56.274Z,99741.81
2022-11-16T09:37:57.769Z,99735.16
2022-11-16T09:39:28.786Z,99743.84
2022-11-16T09:40:23.409Z,99746.16
2022-11-16T09:41:41.180Z,99748.50
2022-11-16T09:42:53.581Z,99751.84
2022-11-16T09:44:04.007Z,99748.19
2022-11-16T09:45:11.951Z,99746.38
2022-11-16T09:46:22.283Z,99754.16
2022-11-16T09:47:40.312Z,99751.50
2022-11-16T09:48:46.236Z,99744.22
2022-11-16T09:49:58.231Z,99754.53
2022-11-16T09:51:08.107Z,99753.38
2022-11-16T09:52:14.517Z,99751.56
2022-11-16T09:53:34.599Z,99744.09
2022-11-16T09:54:40.203Z,99755.38
2022-11-16T09:55:48.485Z,99756.38
2022-11-16T09:56:54.304Z,99751.06
2022-11-16T09:58:00.690Z,99756.38
2022-11-16T09:59:07.097Z,99742.91
2022-11-16T10:00:23.544Z,99757.06
2022-11-16T10:01:29.182Z,99743.75
2022-11-16T10:02:36.486Z,99750.44
2022-11-16T10:03:44.130Z,99749.25
2022-11-16T10:04:57.749Z,99751.41
2022-11-16T10:06:04.179Z,99744.63
2022-11-16T10:07:13.810Z,99744.81
2022-11-16T10:08:25.500Z,99742.34
2022-11-16T10:09:28.841Z,99734.00
2022-11-16T10:10:37.597Z,99744.34
2022-11-16T10:11:50.072Z,99746.00
2022-11-16T10:12:56.877Z,99741.81
2022-11-16T10:14:09.257Z,99747.47
2022-11-16T10:15:28.212Z,99745.31
2022-11-16T10:16:37.982Z,99755.13
2022-11-16T10:18:01.747Z,99747.16
2022-11-16T10:19:13.192Z,99748.66
2022-11-16T10:20:34.751Z,99747.66
2022-11-16T10:21:48.804Z,99746.66
2022-11-16T10:22:58.282Z,99753.97
2022-11-16T10:24:24.313Z,99743.66
2022-11-16T10:25:31.789Z,99747.63
2022-11-16T10:26:44.235Z,99741.78
2022-11-16T10:28:27.823Z,99737.13
2022-11-16T10:29:40.793Z,99742.13
2022-11-16T10:30:48.915Z,99749.59
2022-11-16T10:32:04.209Z,99734.09
2022-11-16T10:33:14.275Z,99735.25
2022-11-16T10:34:20.172Z,99732.94
2022-11-16T10:35:29.538Z,99741.91
2022-11-16T10:36:36.923Z,99747.41
2022-11-16T10:37:47.442Z,99740.53
2022-11-16T10:38:50.027Z,99737.22
2022-11-16T10:39:53.164Z,99747.88
2022-11-16T10:40:58.751Z,99732.03
2022-11-16T10:42:07.254Z,99732.22
2022-11-16T10:43:14.551Z,99725.22
2022-11-16T10:44:21.790Z,99723.56
2022-11-16T10:45:29.815Z,99727.22
2022-11-16T10:46:36.400Z,99727.22
2022-11-16T10:47:44.569Z,99724.72
2022-11-16T10:48:58.251Z,99729.03
2022-11-16T10:50:01.653Z,99727.22
2022-11-16T10:51:05.785Z,99721.91
2022-11-16T10:52:07.397Z,99716.59
2022-11-16T10:53:14.117Z,99721.72
2022-11-16T10:54:17.382Z,99714.59
2022-11-16T10:55:22.527Z,99716.25
2022-11-16T10:56:29.959Z,99717.09
2022-11-16T10:57:54.647Z,99710.94
2022-11-16T10:59:00.238Z,99717.09
2022-11-16T11:00:03.301Z,99712.63
2022-11-16T11:01:28.158Z,99714.25
2022-11-16T11:02:37.773Z,99706.28
2022-11-16T11:03:40.242Z,99708.09
2022-11-16T11:05:02.947Z,99705.28
2022-11-16T11:06:08.472Z,99712.28
2022-11-16T11:07:24.469Z,99706.97
2022-11-16T11:08:30.350Z,99709.44
2022-11-16T11:09:33.439Z,99701.47
2022-11-16T11:10:38.565Z,99709.31
2022-11-16T11:11:58.740Z,99706.63
2022-11-16T11:13:21.705Z,99700.47
2022-11-16T11:14:23.242Z,99699.63
2022-11-16T11:15:26.807Z,99696.97
2022-11-16T11:16:29.803Z,99696.13
2022-11-16T11:17:33.619Z,99701.31
2022-11-16T11:18:36.116Z,99696.84
2022-11-16T11:19:37.804Z,99694.00
2022-11-16T11:20:45.036Z,99694.00
2022-11-16T11:21:48.635Z,99695.66
2022-11-16T11:22:54.279Z,99685.69
2022-11-16T11:24:16.100Z,99690.00
2022-11-16T11:25:22.836Z,99687.34
2022-11-16T11:26:35.938Z,99685.53
2022-11-16T11:27:39.399Z,99688.19
2022-11-16T11:28:47.807Z,99686.38
2022-11-16T11:29:53.757Z,99681.03
2022-11-16T11:31:00.326Z,99677.38
2022-11-16T11:32:07.214Z,99683.53
2022-11-16T11:33:12.495Z,99682.69
2022-11-16T11:34:19.768Z,99682.38
2022-11-16T11:35:26.838Z,99677.72
2022-11-16T11:36:38.288Z,99675.06
2022-11-16T11:37:40.872Z,99676.06
2022-11-16T11:38:57.648Z,99672.22
2022-11-16T11:40:22.476Z,99673.06
2022-11-16T11:41:27.512Z,99660.59
2022-11-16T11:42:29.041Z,99666.91
2022-11-16T11:43:33.597Z,99676.41
2022-11-16T11:44:44.709Z,99670.06
2022-11-16T11:45:52.555Z,99661.25
2022-11-16T11:48:33.685Z,99663.75
2022-11-16T11:49:40.616Z,99660.25
2022-11-16T11:50:48.543Z,99663.75
2022-11-16T11:51:53.083Z,99650.44
2022-11-16T11:53:00.697Z,99655.59
2022-11-16T11:54:06.019Z,99658.09
2022-11-16T11:55:08.767Z,99647.59
2022-11-16T11:56:12.966Z,99646.63
2022-11-16T11:57:16.445Z,99647.47
2022-11-16T11:58:21.894Z,99650.78
2022-11-16T11:59:27.330Z,99650.78
2022-11-16T12:00:37.400Z,99645.44
2022-11-16T12:02:00.355Z,99658.75
2022-11-16T12:03:31.612Z,99648.78
2022-11-16T12:05:15.507Z,99648.78
2022-11-16T12:06:22.785Z,99651.28
2022-11-16T12:07:40.411Z,99644.97
2022-11-16T12:09:05.631Z,99643.28
2022-11-16T12:10:19.639Z,99638.81
2022-11-16T12:11:30.261Z,99637.81
2022-11-16T12:12:43.491Z,99628.00
2022-11-16T12:14:00.093Z,99632.50
2022-11-16T12:15:23.290Z,99626.97
2022-11-16T12:16:33.415Z,99623.50
2022-11-16T12:17:49.801Z,99624.31
2022-11-16T12:19:12.761Z,99633.16
2022-11-16T12:20:29.040Z,99635.81
2022-11-16T12:21:42.559Z,99626.00
2022-11-16T12:23:26.207Z,99622.50
2022-11-16T12:24:44.045Z,99619.84
2022-11-16T12:25:54.308Z,99612.69
2022-11-16T12:27:09.981Z,99613.53
2022-11-16T12:28:24.879Z,99617.03
2022-11-16T12:29:33.371Z,99612.53
2022-11-16T12:30:45.726Z,99617.69
2022-11-16T12:31:59.915Z,99604.38
2022-11-16T12:33:21.798Z,99607.03
2022-11-16T12:34:32.942Z,99611.34
2022-11-16T12:35:45.790Z,99611.34
2022-11-16T12:36:57.874Z,99609.34
2022-11-16T12:38:10.669Z,99616.50
2022-11-16T12:39:23.741Z,99605.69
2022-11-16T12:40:38.521Z,99606.53
2022-11-16T12:42:22.205Z,99609.84
2022-11-16T12:43:36.525Z,99607.88
2022-11-16T12:45:03.070Z,99601.03
2022-11-16T12:46:16.403Z,99606.84
2022-11-16T12:47:28.270Z,99598.88
2022-11-16T12:49:03.089Z,99605.88
2022-11-16T12:50:16.677Z,99605.69
2022-11-16T12:51:33.678Z,99601.88
2022-11-16T12:52:52.529Z,99602.38
2022-11-16T12:54:27.014Z,99607.19
2022-11-16T12:55:40.783Z,99598.50
2022-11-16T12:56:49.769Z,99597.81
2022-11-16T12:58:03.316Z,99601.81
2022-11-16T12:59:22.413Z,99602.16
2022-11-16T13:00:25.055Z,99598.97
2022-11-16T13:01:35.595Z,99597.47
2022-11-16T13:02:59.930Z,99598.78
2022-11-16T13:04:07.205Z,99593.78